LIEO/OLB METAR and TAF weather

Enter ICAO airport designator
Station Type Date Time Source
LIEO METAR 2020/01/27 16:50 UTC NOAA

LIEO 271650Z 23006KT 9999 FEW025 13/09 Q1020


Station Type Date Time Source
LIEO Decoded METAR 2020/01/27 16:50 UTC NOAA

Olbia / Costa Smeralda, Italy (LIEO) 40-54N 009-31E 13M
Jan 27, 2020 - 11:50 AM EST / 2020.01.27 1650 UTC
Wind: from the SW (230 degrees) at 7 MPH (6 KT):0
Visibility: greater than 7 mile(s):0
Sky conditions: mostly clear
Temperature: 55 F (13 C)
Dew Point: 48 F (9 C)
Relative Humidity: 76%
Pressure (altimeter): 30.12 in. Hg (1020 hPa)
ob: LIEO 271650Z 23006KT 9999 FEW025 13/09 Q1020
cycle: 17

Station Type Date Time Source
LIEO TAF 2020/01/27 12:21 UTC NOAA

TAF LIEO 271100Z 2712/2812 24014KT CAVOK

Example: see airport list